Kezdőlap
METAR-TAF:

METAR-TAF

Repülőterek :

Narsarsuaq, Grönland

földrajzi szélesség: 61-10N, földrajzi hosszúság: 045-25W, magasság: 34 m

Jelenlegi meteorológiai megfigyelések

A jelentés 43 perccel ezelõtt készült, 16:50 UTC
Délnyugati szél 11 kt
Hőmérséklet 16°C
Páratartalom 42%
Légköri nyomás 1014 hPa
Látótávolság 10 km, vagy több
Szórványos felhőzet 20000 lábon

METAR: BGBW 181650Z 22011KT 9999 SCT200 16/03 Q1014

Idő: 15:33 (17:33 UTC)

Előrejelzés

A jelentés 3 órával és 3 perccel ezelõtt készült, 14:30 UTC
Az előrejelzés 18-én 15 óra UTC és 18-én 22 óra UTC között érvényes
Nyugat-délnyugati szél 12 kt
Látótávolság 10 km, vagy több
Szórványos felhőzet 20000 lábon

TAF: BGBW 181430Z 1815/1822 24012KT 9999 SCT200

Meteorológiai megfigyelések és előrejelzések több, mint 4000 repülőtéren (METAR és TAF jelentéseket).

A térképen piros és sárga pontok jelzik az elérhető meteorológiai állomásokat.

Mozgassa az egeret a pont fölött, hogy megjelenjen az állomás neve.

Azután kattintson az időjárási megfigyelések és előrejelzések megtekintéséhez.

A térkép megváltoztatása: kattintson a fekete keresztel jelölt zöld gombra ráközelítéshez, a vonallal jelölt zöld gombra távolításhoz, vagy a zöld nyilakra a szomszédos térképek eléréséhez.


METAR-TAF: